createdAt,value
2022-11-22T00:00:18.574Z,35.40
2022-11-22T00:02:45.942Z,42.08
2022-11-22T00:05:12.882Z,41.35
2022-11-22T00:07:39.898Z,38.20
2022-11-22T00:10:09.374Z,43.28
2022-11-22T00:12:36.627Z,44.75
2022-11-22T00:15:04.575Z,43.20
2022-11-22T00:17:35.179Z,44.25
2022-11-22T00:20:02.410Z,45.10
2022-11-22T00:22:30.583Z,51.10
2022-11-22T00:24:57.358Z,45.10
2022-11-22T00:27:24.566Z,47.58
2022-11-22T00:29:51.310Z,40.17
2022-11-22T00:32:18.068Z,47.17
2022-11-22T00:34:44.880Z,43.72
2022-11-22T00:37:11.658Z,47.55
2022-11-22T00:39:38.478Z,42.40
2022-11-22T00:42:05.410Z,40.53
2022-11-22T00:44:32.223Z,49.70
2022-11-22T00:46:59.034Z,44.25
2022-11-22T00:49:25.838Z,41.90
2022-11-22T00:51:53.047Z,39.75
2022-11-22T00:54:19.846Z,43.20
2022-11-22T00:56:46.604Z,41.95
2022-11-22T00:59:13.566Z,42.28
2022-11-22T01:01:40.414Z,43.30
2022-11-22T01:04:07.430Z,48.47
2022-11-22T01:06:34.319Z,41.33
2022-11-22T01:09:01.100Z,43.42
2022-11-22T01:11:27.894Z,50.85
2022-11-22T01:13:54.710Z,39.97
2022-11-22T01:16:21.538Z,43.22
2022-11-22T01:18:48.439Z,43.95
2022-11-22T01:21:15.282Z,47.72
2022-11-22T01:23:42.111Z,41.08
2022-11-22T01:26:09.585Z,43.13
2022-11-22T01:28:37.018Z,49.50
2022-11-22T01:31:04.927Z,40.20
2022-11-22T01:33:31.784Z,45.67
2022-11-22T01:35:58.670Z,41.50
2022-11-22T01:38:25.760Z,52.45
2022-11-22T01:40:53.331Z,49.85
2022-11-22T01:43:23.134Z,50.20
2022-11-22T01:46:03.910Z,44.72
2022-11-22T01:48:52.877Z,46.28
2022-11-22T01:51:42.316Z,45.08
2022-11-22T01:54:15.594Z,46.67
2022-11-22T01:56:46.231Z,45.58
2022-11-22T01:59:16.958Z,50.47
2022-11-22T02:01:44.055Z,47.30
2022-11-22T02:04:14.171Z,46.17
2022-11-22T02:07:02.491Z,52.55
2022-11-22T02:09:30.726Z,48.58
2022-11-22T02:12:02.195Z,52.13
2022-11-22T02:14:29.867Z,44.97
2022-11-22T02:16:57.087Z,54.42
2022-11-22T02:19:37.411Z,48.13
2022-11-22T02:22:20.053Z,54.92
2022-11-22T02:24:59.702Z,40.65
2022-11-22T02:27:26.683Z,54.75
2022-11-22T02:29:53.470Z,59.50
2022-11-22T02:32:20.603Z,48.88
2022-11-22T02:34:50.007Z,44.17
2022-11-22T02:37:23.059Z,48.20
2022-11-22T02:40:04.839Z,49.67
2022-11-22T02:42:32.432Z,55.33
2022-11-22T02:44:59.231Z,50.10
2022-11-22T02:47:26.029Z,47.67
2022-11-22T02:49:53.919Z,49.50
2022-11-22T02:52:20.728Z,49.80
2022-11-22T02:54:47.559Z,43.53
2022-11-22T02:57:14.367Z,43.70
2022-11-22T02:59:41.200Z,46.35
2022-11-22T03:02:09.993Z,50.00
2022-11-22T03:04:36.859Z,45.70
2022-11-22T03:07:04.520Z,50.42
2022-11-22T03:09:32.412Z,51.67
2022-11-22T03:11:59.768Z,53.15
2022-11-22T03:14:26.613Z,48.13
2022-11-22T03:16:53.438Z,47.17
2022-11-22T03:19:20.527Z,42.75
2022-11-22T03:21:47.321Z,42.58
2022-11-22T03:24:14.630Z,50.25
2022-11-22T03:26:42.031Z,46.55
2022-11-22T03:29:08.801Z,48.30
2022-11-22T03:31:36.251Z,44.03
2022-11-22T03:34:03.120Z,51.85
2022-11-22T03:36:29.972Z,53.53
2022-11-22T03:38:56.796Z,47.92
2022-11-22T03:41:23.556Z,48.17
2022-11-22T03:43:50.332Z,40.53
2022-11-22T03:46:19.520Z,45.15
2022-11-22T03:48:47.080Z,44.22
2022-11-22T03:51:14.361Z,55.10
2022-11-22T03:53:41.401Z,44.35
2022-11-22T03:56:08.316Z,41.20
2022-11-22T03:58:35.418Z,56.53
2022-11-22T04:01:02.345Z,41.92
2022-11-22T04:03:29.425Z,47.72
2022-11-22T04:05:56.520Z,44.03
2022-11-22T04:08:23.516Z,48.58
2022-11-22T04:10:51.534Z,44.15
2022-11-22T04:13:19.216Z,54.10
2022-11-22T04:15:46.017Z,47.30
2022-11-22T04:18:13.938Z,49.40
2022-11-22T04:20:59.703Z,43.60
2022-11-22T04:23:32.435Z,53.35
2022-11-22T04:26:00.471Z,44.97
2022-11-22T04:28:53.725Z,49.72
2022-11-22T04:31:32.668Z,48.08
2022-11-22T04:33:59.468Z,58.97
2022-11-22T04:36:26.221Z,53.65
2022-11-22T04:38:52.977Z,52.20
2022-11-22T04:41:19.760Z,52.15
2022-11-22T04:44:05.256Z,57.70
2022-11-22T04:46:32.066Z,44.58
2022-11-22T04:48:58.853Z,50.00
2022-11-22T04:51:44.338Z,55.13
2022-11-22T04:54:11.113Z,51.63
2022-11-22T04:56:37.901Z,48.17
2022-11-22T04:59:04.730Z,43.08
2022-11-22T05:01:31.657Z,53.78
2022-11-22T05:03:58.487Z,39.80
2022-11-22T05:06:25.321Z,54.38
2022-11-22T05:08:52.123Z,52.70
2022-11-22T05:11:18.903Z,48.13
2022-11-22T05:13:45.749Z,55.53
2022-11-22T05:16:14.515Z,55.45
2022-11-22T05:18:41.932Z,62.33
2022-11-22T05:21:14.175Z,53.10
2022-11-22T05:23:56.449Z,69.05
2022-11-22T05:26:27.876Z,52.92
2022-11-22T05:28:55.241Z,60.58
2022-11-22T05:31:23.623Z,60.40
2022-11-22T05:33:55.708Z,58.80
2022-11-22T05:36:23.949Z,65.93
2022-11-22T05:38:50.968Z,60.03
2022-11-22T05:41:18.497Z,69.72
2022-11-22T05:43:45.349Z,64.15
2022-11-22T05:46:23.557Z,63.08
2022-11-22T05:48:51.102Z,59.10
2022-11-22T05:51:20.778Z,59.30
2022-11-22T05:53:47.873Z,66.45
2022-11-22T05:56:17.431Z,67.15
2022-11-22T05:58:44.947Z,61.65
2022-11-22T06:01:18.330Z,62.45
2022-11-22T06:03:45.517Z,71.40
2022-11-22T06:06:12.698Z,79.65
2022-11-22T06:08:41.649Z,66.75
2022-11-22T06:11:22.692Z,61.08
2022-11-22T06:13:52.585Z,74.00
2022-11-22T06:16:19.877Z,66.47
2022-11-22T06:18:47.547Z,81.00
2022-11-22T06:21:18.419Z,67.88
2022-11-22T06:23:45.832Z,74.68
2022-11-22T06:26:15.497Z,54.30
2022-11-22T06:28:42.952Z,61.08
2022-11-22T06:31:11.368Z,65.10
2022-11-22T06:33:39.182Z,72.07
2022-11-22T06:36:07.556Z,61.45
2022-11-22T06:38:34.392Z,78.57
2022-11-22T06:41:06.207Z,59.47
2022-11-22T06:43:34.306Z,71.18
2022-11-22T06:46:02.450Z,67.43
2022-11-22T06:48:30.404Z,71.97
2022-11-22T06:51:01.705Z,70.93
2022-11-22T06:53:46.266Z,73.88
2022-11-22T06:56:31.666Z,78.90
2022-11-22T06:59:03.883Z,85.47
2022-11-22T07:01:31.777Z,96.85
2022-11-22T07:03:59.793Z,77.53
2022-11-22T07:06:31.955Z,73.18
2022-11-22T07:09:03.879Z,98.32
2022-11-22T07:11:32.019Z,72.45
2022-11-22T07:14:07.174Z,94.70
2022-11-22T07:16:36.678Z,88.38
2022-11-22T07:19:04.819Z,69.90
2022-11-22T07:21:32.558Z,82.05
2022-11-22T07:23:59.435Z,97.97
2022-11-22T07:26:26.820Z,82.50
2022-11-22T07:28:53.710Z,96.80
2022-11-22T07:31:20.974Z,82.72
2022-11-22T07:33:48.080Z,91.88
2022-11-22T07:36:20.418Z,85.80
2022-11-22T07:38:48.557Z,80.05
2022-11-22T07:41:16.354Z,81.90
2022-11-22T07:43:43.283Z,92.88
2022-11-22T07:46:31.344Z,95.47
2022-11-22T07:48:59.591Z,92.00
2022-11-22T07:51:27.297Z,101.47
2022-11-22T07:53:55.923Z,88.88
2022-11-22T07:56:23.132Z,77.28
2022-11-22T07:58:49.883Z,79.95
2022-11-22T08:01:18.811Z,93.90
2022-11-22T08:03:46.632Z,81.15
2022-11-22T08:06:14.216Z,100.65
2022-11-22T08:08:41.369Z,85.85
2022-11-22T08:11:08.447Z,90.70
2022-11-22T08:13:35.978Z,98.15
2022-11-22T08:16:06.087Z,93.47
2022-11-22T08:18:34.463Z,86.78
2022-11-22T08:21:12.477Z,91.10
2022-11-22T08:23:40.475Z,90.50
2022-11-22T08:26:09.538Z,85.68
2022-11-22T08:28:36.476Z,83.47
2022-11-22T08:31:05.720Z,97.55
2022-11-22T08:33:32.730Z,80.47
2022-11-22T08:35:59.623Z,86.72
2022-11-22T08:38:27.021Z,87.20
2022-11-22T08:40:54.398Z,78.13
2022-11-22T08:43:21.403Z,90.15
2022-11-22T08:45:53.487Z,76.38
2022-11-22T08:48:22.410Z,88.22
2022-11-22T08:50:54.052Z,96.22
2022-11-22T08:53:21.253Z,105.85
2022-11-22T08:55:48.123Z,84.80
2022-11-22T08:58:14.980Z,104.32
2022-11-22T09:00:42.075Z,101.53
2022-11-22T09:03:09.004Z,84.05
2022-11-22T09:05:36.612Z,82.78
2022-11-22T09:10:50.891Z,97.55
2022-11-22T09:13:17.636Z,95.38
2022-11-22T09:15:44.412Z,87.20
2022-11-22T09:18:11.231Z,91.30
2022-11-22T09:20:38.031Z,75.75
2022-11-22T09:23:04.887Z,81.07
2022-11-22T09:25:31.743Z,87.25
2022-11-22T09:28:04.564Z,89.03
2022-11-22T09:30:31.681Z,81.53
2022-11-22T09:32:58.583Z,76.47
2022-11-22T09:35:25.377Z,86.93
2022-11-22T09:37:52.228Z,79.93
2022-11-22T09:40:19.063Z,83.57
2022-11-22T09:43:26.908Z,76.13
2022-11-22T09:46:37.940Z,79.55
2022-11-22T09:49:27.538Z,74.65
2022-11-22T09:52:06.196Z,93.93
2022-11-22T09:54:54.295Z,73.95
2022-11-22T09:57:31.939Z,84.55
2022-11-22T10:00:04.982Z,107.57
2022-11-22T10:02:59.418Z,122.28
2022-11-22T10:05:33.244Z,85.32
2022-11-22T10:08:17.673Z,92.38
2022-11-22T10:10:44.654Z,74.80
2022-11-22T10:13:19.525Z,103.43
2022-11-22T10:15:49.100Z,98.90
2022-11-22T10:18:31.911Z,92.95
2022-11-22T10:21:00.512Z,69.60
2022-11-22T10:23:27.776Z,77.97
2022-11-22T10:26:00.033Z,75.63
2022-11-22T10:28:29.571Z,62.35
2022-11-22T10:31:07.212Z,59.35
2022-11-22T10:33:44.163Z,73.63
2022-11-22T10:36:26.653Z,73.82
2022-11-22T10:38:56.232Z,90.20
2022-11-22T10:41:25.968Z,71.97
2022-11-22T10:44:31.008Z,66.13
2022-11-22T10:46:57.778Z,76.22
2022-11-22T10:49:42.805Z,66.20
2022-11-22T10:52:09.634Z,85.43
2022-11-22T10:55:04.600Z,78.10
2022-11-22T10:57:43.100Z,66.53
2022-11-22T11:00:23.130Z,71.35
2022-11-22T11:03:05.544Z,75.20
2022-11-22T11:09:47.628Z,72.43
2022-11-22T11:11:45.413Z,59.90
2022-11-22T11:14:41.375Z,66.28
2022-11-22T11:17:08.216Z,63.38
2022-11-22T11:19:41.790Z,68.70
2022-11-22T11:22:08.550Z,60.75
2022-11-22T11:24:39.940Z,75.65
2022-11-22T11:27:09.364Z,91.90
2022-11-22T11:29:41.587Z,109.60
2022-11-22T11:32:14.195Z,110.43
2022-11-22T11:34:54.305Z,97.03
2022-11-22T11:37:32.191Z,81.43
2022-11-22T11:39:58.958Z,90.93
2022-11-22T11:42:31.198Z,78.78
2022-11-22T11:45:20.230Z,77.63
2022-11-22T11:47:47.081Z,69.13
2022-11-22T11:50:24.314Z,72.85
2022-11-22T11:52:57.164Z,61.03
2022-11-22T11:55:24.948Z,87.32
2022-11-22T11:57:53.171Z,73.95
2022-11-22T12:00:38.023Z,68.50
2022-11-22T12:03:12.230Z,65.40
2022-11-22T12:05:39.032Z,67.60
2022-11-22T12:08:31.868Z,62.35
2022-11-22T12:11:16.432Z,73.65
2022-11-22T12:14:18.593Z,51.25
2022-11-22T12:16:43.256Z,54.25
2022-11-22T12:19:24.598Z,51.88
2022-11-22T12:22:35.503Z,57.25
2022-11-22T12:25:33.429Z,54.33
2022-11-22T12:28:18.133Z,53.83
2022-11-22T12:30:48.376Z,75.20
2022-11-22T12:33:26.064Z,59.17
2022-11-22T12:35:54.532Z,51.15
2022-11-22T12:38:34.092Z,57.70
2022-11-22T12:41:05.288Z,53.83
2022-11-22T12:43:37.713Z,58.78
2022-11-22T12:46:11.697Z,61.72
2022-11-22T12:48:48.680Z,54.72
2022-11-22T12:51:27.876Z,56.47
2022-11-22T12:54:00.741Z,57.60
2022-11-22T12:56:50.297Z,61.95
2022-11-22T12:59:35.132Z,42.35
2022-11-22T13:02:26.972Z,42.42
2022-11-22T13:05:15.381Z,44.13
2022-11-22T13:08:09.723Z,48.92
2022-11-22T13:10:36.437Z,38.40
2022-11-22T13:13:06.555Z,38.92
2022-11-22T13:15:37.469Z,42.17
2022-11-22T13:18:09.518Z,38.28
2022-11-22T13:20:43.220Z,44.05
2022-11-22T13:23:41.022Z,46.28
2022-11-22T13:26:26.937Z,49.83
2022-11-22T13:28:54.823Z,44.47
2022-11-22T13:31:21.873Z,46.65
2022-11-22T13:34:24.304Z,55.50
2022-11-22T13:36:52.393Z,51.88
2022-11-22T13:39:23.095Z,47.45
2022-11-22T13:41:59.193Z,51.08
2022-11-22T13:44:34.513Z,51.55
2022-11-22T13:47:05.673Z,49.50
2022-11-22T13:49:36.870Z,49.60
2022-11-22T13:52:25.795Z,48.40
2022-11-22T13:54:58.630Z,45.10
2022-11-22T13:57:37.491Z,50.45
2022-11-22T14:00:16.246Z,46.97
2022-11-22T14:02:45.005Z,44.97
2022-11-22T14:05:41.355Z,47.08
2022-11-22T14:08:30.305Z,43.10
2022-11-22T14:10:57.039Z,45.30
2022-11-22T14:13:48.341Z,49.05
2022-11-22T14:16:39.922Z,43.33
2022-11-22T14:19:19.008Z,50.95
2022-11-22T14:22:18.133Z,48.63
2022-11-22T14:25:10.346Z,56.00
2022-11-22T14:27:47.151Z,56.60
2022-11-22T14:30:42.302Z,60.42
2022-11-22T14:33:19.206Z,51.58
2022-11-22T14:36:12.301Z,53.35
2022-11-22T14:38:40.630Z,53.47
2022-11-22T14:41:26.102Z,57.42
2022-11-22T14:44:05.901Z,48.33
2022-11-22T14:46:52.775Z,52.55
2022-11-22T14:50:00.237Z,50.50
2022-11-22T14:52:32.005Z,51.17
2022-11-22T14:55:06.176Z,57.58
2022-11-22T14:57:36.607Z,53.20
2022-11-22T15:00:21.885Z,53.47
2022-11-22T15:03:26.187Z,54.55
2022-11-22T15:09:13.542Z,47.67
2022-11-22T15:09:15.080Z,48.90
2022-11-22T15:12:07.328Z,45.83
2022-11-22T15:14:37.229Z,43.42
2022-11-22T15:58:13.668Z,36.47
2022-11-22T16:00:43.797Z,39.85
2022-11-22T16:03:22.809Z,38.20
2022-11-22T16:06:08.487Z,35.88
2022-11-22T16:08:36.966Z,39.70
2022-11-22T16:11:04.622Z,38.55
2022-11-22T16:13:36.260Z,37.38
2022-11-22T16:16:12.601Z,41.08
2022-11-22T16:18:43.726Z,41.30
2022-11-22T16:21:11.259Z,38.58
2022-11-22T16:23:39.283Z,48.72
2022-11-22T16:26:19.127Z,45.17
2022-11-22T16:28:51.368Z,43.30
2022-11-22T16:31:27.454Z,37.30
2022-11-22T16:33:55.560Z,36.25
2022-11-22T16:36:24.651Z,37.17
2022-11-22T16:38:51.443Z,42.38
2022-11-22T16:41:24.157Z,44.45
2022-11-22T16:43:54.076Z,43.42
2022-11-22T16:46:21.343Z,43.40
2022-11-22T16:48:48.562Z,60.88
2022-11-22T16:51:23.222Z,49.53
2022-11-22T16:53:51.343Z,56.13
2022-11-22T16:56:19.588Z,42.58
2022-11-22T16:58:47.939Z,41.53
2022-11-22T17:01:17.076Z,48.85
2022-11-22T17:03:45.586Z,51.70
2022-11-22T17:06:18.765Z,51.28
2022-11-22T17:08:47.375Z,55.08
2022-11-22T17:11:19.886Z,45.10
2022-11-22T17:13:47.293Z,49.55
2022-11-22T17:16:15.291Z,51.22
2022-11-22T17:18:42.192Z,43.75
2022-11-22T17:21:31.560Z,46.33
2022-11-22T17:24:05.741Z,44.17
2022-11-22T17:26:34.719Z,41.40
2022-11-22T17:29:01.794Z,48.30
2022-11-22T17:31:29.149Z,37.83
2022-11-22T17:33:58.323Z,51.25
2022-11-22T17:36:36.287Z,50.38
2022-11-22T17:39:08.686Z,47.42
2022-11-22T17:41:35.545Z,55.97
2022-11-22T17:44:03.438Z,49.40
2022-11-22T17:46:32.951Z,52.88
2022-11-22T17:49:01.724Z,45.92
2022-11-22T17:51:30.174Z,47.58
2022-11-22T17:54:00.491Z,49.35
2022-11-22T17:56:29.139Z,46.25
2022-11-22T17:58:56.194Z,42.78
2022-11-22T18:01:23.654Z,51.55
2022-11-22T18:03:50.810Z,49.28
2022-11-22T18:06:19.034Z,49.13
2022-11-22T18:08:47.420Z,54.85
2022-11-22T18:11:15.687Z,45.85
2022-11-22T18:13:42.894Z,45.22
2022-11-22T18:16:15.496Z,49.40
2022-11-22T18:18:58.539Z,44.15
2022-11-22T18:21:27.018Z,40.30
2022-11-22T18:23:53.907Z,46.55
2022-11-22T18:26:38.767Z,48.30
2022-11-22T18:31:54.537Z,52.47
2022-11-22T18:34:25.055Z,43.40
2022-11-22T18:36:59.404Z,41.47
2022-11-22T18:39:29.633Z,50.58
2022-11-22T18:41:56.759Z,43.38
2022-11-22T18:44:23.578Z,52.53
2022-11-22T18:46:50.448Z,55.63
2022-11-22T18:49:17.276Z,41.22
2022-11-22T18:51:44.128Z,59.85
2022-11-22T18:54:11.295Z,48.78
2022-11-22T18:56:40.261Z,56.92
2022-11-22T18:59:10.604Z,47.90
2022-11-22T19:01:37.588Z,51.03
2022-11-22T19:04:05.036Z,56.85
2022-11-22T19:06:32.088Z,51.63
2022-11-22T19:08:59.192Z,52.63
2022-11-22T19:11:26.303Z,54.88
2022-11-22T19:13:53.162Z,56.00
2022-11-22T19:16:22.122Z,55.40
2022-11-22T19:18:49.893Z,54.13
2022-11-22T19:21:19.295Z,55.53
2022-11-22T19:23:47.003Z,57.40
2022-11-22T19:26:15.780Z,59.22
2022-11-22T19:28:43.064Z,65.63
2022-11-22T19:31:15.226Z,60.05
2022-11-22T19:33:42.306Z,59.50
2022-11-22T19:36:20.864Z,57.78
2022-11-22T19:38:48.660Z,61.92
2022-11-22T19:41:18.084Z,54.33
2022-11-22T19:43:46.120Z,68.85
2022-11-22T19:46:13.892Z,51.28
2022-11-22T19:48:47.014Z,55.58
2022-11-22T19:51:15.600Z,51.78
2022-11-22T19:53:42.701Z,55.30
2022-11-22T19:56:18.050Z,57.03
2022-11-22T19:58:50.548Z,60.47
2022-11-22T20:01:17.807Z,59.55
2022-11-22T20:03:45.603Z,65.80
2022-11-22T20:06:13.907Z,63.42
2022-11-22T20:08:41.354Z,52.38
2022-11-22T20:11:11.188Z,52.95
2022-11-22T20:13:40.471Z,55.08
2022-11-22T20:16:11.382Z,54.97
2022-11-22T20:18:38.481Z,50.28
2022-11-22T20:21:07.019Z,60.85
2022-11-22T20:23:34.185Z,54.05
2022-11-22T20:26:12.105Z,45.72
2022-11-22T20:28:40.733Z,50.30
2022-11-22T20:31:14.713Z,54.83
2022-11-22T20:33:43.697Z,44.63
2022-11-22T20:36:19.317Z,54.85
2022-11-22T20:38:47.545Z,49.70
2022-11-22T20:41:15.751Z,57.13
2022-11-22T20:43:43.185Z,53.42
2022-11-22T20:46:12.505Z,55.22
2022-11-22T20:48:40.673Z,60.55
2022-11-22T20:51:10.434Z,52.17
2022-11-22T20:53:37.801Z,54.63
2022-11-22T20:56:05.490Z,68.22
2022-11-22T20:58:32.663Z,61.67
2022-11-22T21:01:04.324Z,52.35
2022-11-22T21:03:31.141Z,58.00
2022-11-22T21:05:58.025Z,60.42
2022-11-22T21:08:24.925Z,61.75
2022-11-22T21:10:51.699Z,52.97
2022-11-22T21:13:18.585Z,62.03
2022-11-22T21:15:45.462Z,55.40
2022-11-22T21:18:27.626Z,51.03
2022-11-22T21:20:54.521Z,54.40
2022-11-22T21:23:21.376Z,68.32
2022-11-22T21:25:50.562Z,44.13
2022-11-22T21:28:17.407Z,48.00
2022-11-22T21:30:44.206Z,60.17
2022-11-22T21:33:10.999Z,58.92
2022-11-22T21:35:37.887Z,48.10
2022-11-22T21:38:04.659Z,50.95
2022-11-22T21:40:31.511Z,47.67
2022-11-22T21:42:58.322Z,46.72
2022-11-22T21:45:25.126Z,60.78
2022-11-22T21:47:51.994Z,52.55
2022-11-22T21:50:18.946Z,52.95
2022-11-22T21:52:45.743Z,56.45
2022-11-22T21:55:13.072Z,64.47
2022-11-22T21:57:39.865Z,50.60
2022-11-22T22:00:07.298Z,49.67
2022-11-22T22:02:34.083Z,54.97
2022-11-22T22:05:00.848Z,44.58
2022-11-22T22:07:51.609Z,56.67
2022-11-22T22:10:15.336Z,65.25
2022-11-22T22:12:42.119Z,48.90
2022-11-22T22:15:13.261Z,53.40
2022-11-22T22:17:40.078Z,49.15
2022-11-22T22:20:07.452Z,53.00
2022-11-22T22:22:38.073Z,44.28
2022-11-22T22:25:06.163Z,51.85
2022-11-22T22:27:33.879Z,60.08
2022-11-22T22:30:00.994Z,43.65
2022-11-22T22:32:28.084Z,53.40
2022-11-22T22:34:55.005Z,57.42
2022-11-22T22:37:21.817Z,55.65
2022-11-22T22:39:51.498Z,59.15
2022-11-22T22:42:19.134Z,72.07
2022-11-22T22:44:46.286Z,63.45
2022-11-22T22:47:13.465Z,57.53
2022-11-22T22:49:40.220Z,61.28
2022-11-22T22:52:07.144Z,72.70
2022-11-22T22:54:34.033Z,71.53
2022-11-22T22:57:01.364Z,63.63
2022-11-22T22:59:29.317Z,60.15
2022-11-22T23:01:56.307Z,60.45
2022-11-22T23:04:23.217Z,71.50
2022-11-22T23:06:50.034Z,59.45
2022-11-22T23:09:16.814Z,67.00
2022-11-22T23:12:02.386Z,65.95
2022-11-22T23:14:30.202Z,53.92
2022-11-22T23:16:58.237Z,67.35
2022-11-22T23:19:26.737Z,56.13
2022-11-22T23:21:54.724Z,60.53
2022-11-22T23:24:21.549Z,54.28
2022-11-22T23:26:48.458Z,54.35
2022-11-22T23:29:15.299Z,59.50
2022-11-22T23:31:42.099Z,50.35
2022-11-22T23:34:11.062Z,66.93
2022-11-22T23:36:41.001Z,44.15
2022-11-22T23:39:08.406Z,61.33
2022-11-22T23:41:35.484Z,54.67
2022-11-22T23:44:02.302Z,68.57
2022-11-22T23:46:29.170Z,56.13
2022-11-22T23:49:00.707Z,56.80
2022-11-22T23:51:29.157Z,62.17
2022-11-22T23:54:01.484Z,58.08
2022-11-22T23:56:29.869Z,56.13
2022-11-22T23:58:59.537Z,51.35
